createdAt,value
2018-02-19T00:01:46.681Z,10.77
2018-02-19T00:04:14.296Z,9.83
2018-02-19T00:06:41.911Z,8.63
2018-02-19T00:09:10.268Z,8.50
2018-02-19T00:11:38.690Z,13.70
2018-02-19T00:14:07.087Z,9.33
2018-02-19T00:16:34.710Z,8.97
2018-02-19T00:19:02.324Z,9.50
2018-02-19T00:21:30.774Z,9.83
2018-02-19T00:23:58.406Z,14.93
2018-02-19T00:26:26.047Z,6.87
2018-02-19T00:28:54.442Z,10.47
2018-02-19T00:31:22.867Z,7.97
2018-02-19T00:33:50.533Z,9.13
2018-02-19T00:36:18.105Z,16.50
2018-02-19T00:38:45.731Z,7.87
2018-02-19T00:41:13.328Z,15.50
2018-02-19T00:43:41.735Z,11.67
2018-02-19T00:46:09.345Z,5.60
2018-02-19T00:48:37.119Z,8.33
2018-02-19T00:51:04.839Z,7.87
2018-02-19T00:53:32.438Z,9.33
2018-02-19T00:56:00.054Z,11.10
2018-02-19T00:58:27.703Z,8.53
2018-02-19T01:00:55.307Z,10.50
2018-02-19T01:03:22.952Z,13.17
2018-02-19T01:05:50.638Z,13.13
2018-02-19T01:08:18.405Z,14.23
2018-02-19T01:10:46.021Z,7.63
2018-02-19T01:13:13.755Z,13.90
2018-02-19T01:15:41.422Z,12.53
2018-02-19T01:18:09.034Z,8.33
2018-02-19T01:20:36.677Z,10.57
2018-02-19T01:23:04.349Z,8.83
2018-02-19T01:25:32.128Z,9.17
2018-02-19T01:27:59.745Z,8.17
2018-02-19T01:30:27.346Z,8.33
2018-02-19T01:32:54.950Z,8.80
2018-02-19T01:35:22.721Z,8.40
2018-02-19T01:37:50.352Z,11.70
2018-02-19T01:40:18.755Z,6.87
2018-02-19T01:42:47.144Z,15.27
2018-02-19T01:45:15.570Z,7.70
2018-02-19T01:47:43.177Z,7.93
2018-02-19T01:50:15.420Z,5.27
2018-02-19T01:52:43.042Z,6.97
2018-02-19T01:55:10.769Z,8.30
2018-02-19T01:57:38.421Z,7.43
2018-02-19T02:00:06.062Z,12.43
2018-02-19T02:02:33.678Z,11.90
2018-02-19T02:05:01.305Z,11.03
2018-02-19T02:07:28.911Z,6.10
2018-02-19T02:09:57.295Z,9.37
2018-02-19T02:12:25.700Z,5.40
2018-02-19T02:14:53.325Z,6.83
2018-02-19T02:17:20.993Z,10.57
2018-02-19T02:19:48.727Z,9.57
2018-02-19T02:22:16.358Z,7.00
2018-02-19T02:24:43.981Z,8.10
2018-02-19T02:27:11.621Z,13.47
2018-02-19T02:29:40.008Z,7.13
2018-02-19T02:32:08.414Z,11.43
2018-02-19T02:34:36.797Z,7.67
2018-02-19T02:37:05.242Z,10.30
2018-02-19T02:39:32.872Z,6.37
2018-02-19T02:42:01.270Z,8.57
2018-02-19T02:44:28.914Z,4.87
2018-02-19T02:46:56.547Z,8.20
2018-02-19T02:49:24.627Z,8.63
2018-02-19T02:51:52.268Z,8.50
2018-02-19T02:54:20.653Z,7.13
2018-02-19T02:56:49.055Z,6.37
2018-02-19T02:59:17.474Z,6.20
2018-02-19T03:01:45.252Z,7.97
2018-02-19T03:04:12.839Z,6.43
2018-02-19T03:06:40.470Z,6.27
2018-02-19T03:09:08.894Z,6.10
2018-02-19T03:11:36.511Z,10.43
2018-02-19T03:14:04.138Z,4.63
2018-02-19T03:16:31.761Z,4.90
2018-02-19T03:19:00.173Z,5.17
2018-02-19T03:21:28.521Z,6.90
2018-02-19T03:23:56.162Z,12.43
2018-02-19T03:26:23.776Z,6.20
2018-02-19T03:28:51.431Z,4.43
2018-02-19T03:31:19.040Z,6.07
2018-02-19T03:33:47.442Z,6.73
2018-02-19T03:36:15.862Z,5.43
2018-02-19T03:38:43.511Z,5.27
2018-02-19T03:41:11.138Z,6.63
2018-02-19T03:43:38.795Z,5.50
2018-02-19T03:46:06.421Z,5.60
2018-02-19T03:48:34.062Z,5.07
2018-02-19T03:51:01.682Z,4.73
2018-02-19T03:53:29.306Z,6.40
2018-02-19T03:55:56.924Z,5.07
2018-02-19T03:58:24.626Z,6.63
2018-02-19T04:00:52.249Z,5.67
2018-02-19T04:03:20.697Z,6.10
2018-02-19T04:05:48.354Z,4.37
2018-02-19T04:08:15.983Z,4.87
2018-02-19T04:10:43.611Z,4.37
2018-02-19T04:13:11.253Z,14.90
2018-02-19T04:15:39.693Z,4.73
2018-02-19T04:18:07.310Z,4.77
2018-02-19T04:20:35.705Z,9.90
2018-02-19T04:23:04.095Z,5.20
2018-02-19T04:25:32.504Z,9.03
2018-02-19T04:28:00.106Z,7.17
2018-02-19T04:30:27.741Z,6.93
2018-02-19T04:32:56.126Z,5.63
2018-02-19T04:35:24.526Z,6.33
2018-02-19T04:37:52.135Z,6.10
2018-02-19T04:40:19.814Z,6.20
2018-02-19T04:42:47.417Z,8.87
2018-02-19T04:45:18.716Z,6.27
2018-02-19T04:47:46.321Z,4.73
2018-02-19T04:50:13.981Z,5.03
2018-02-19T04:52:41.632Z,6.17
2018-02-19T04:55:09.274Z,5.30
2018-02-19T04:57:37.028Z,7.93
2018-02-19T05:00:04.671Z,6.37
2018-02-19T05:02:32.309Z,5.43
2018-02-19T05:05:00.708Z,8.40
2018-02-19T05:07:29.100Z,7.00
2018-02-19T05:09:57.534Z,9.30
2018-02-19T05:12:25.194Z,7.67
2018-02-19T05:14:52.829Z,11.67
2018-02-19T05:17:21.235Z,8.70
2018-02-19T05:19:49.624Z,7.87
2018-02-19T05:22:18.043Z,10.50
2018-02-19T05:24:45.710Z,10.43
2018-02-19T05:27:13.370Z,12.40
2018-02-19T05:29:41.749Z,6.30
2018-02-19T05:32:10.140Z,8.83
2018-02-19T05:34:38.542Z,6.00
2018-02-19T05:37:07.067Z,9.37
2018-02-19T05:39:34.679Z,6.87
2018-02-19T05:42:02.285Z,7.93
2018-02-19T05:44:30.679Z,12.33
2018-02-19T05:46:58.307Z,9.53
2018-02-19T05:49:25.982Z,11.30
2018-02-19T05:51:54.174Z,5.20
2018-02-19T05:54:21.806Z,4.30
2018-02-19T05:56:49.540Z,9.00
2018-02-19T05:59:17.946Z,7.77
2018-02-19T06:01:46.482Z,6.47
2018-02-19T06:04:14.180Z,11.37
2018-02-19T06:06:41.829Z,10.00
2018-02-19T06:09:09.486Z,8.30
2018-02-19T06:11:37.112Z,9.97
2018-02-19T06:14:04.706Z,9.60
2018-02-19T06:16:32.325Z,10.20
2018-02-19T06:19:00.042Z,6.50
2018-02-19T06:21:27.802Z,9.37
2018-02-19T06:23:56.925Z,6.10
2018-02-19T06:26:25.322Z,14.33
2018-02-19T06:28:52.935Z,5.07
2018-02-19T06:31:20.715Z,6.10
2018-02-19T06:33:48.346Z,13.53
2018-02-19T06:36:16.751Z,7.47
2018-02-19T06:38:45.152Z,13.10
2018-02-19T06:41:12.794Z,12.00
2018-02-19T06:43:41.189Z,5.67
2018-02-19T06:46:09.702Z,10.93
2018-02-19T06:48:38.078Z,7.07
2018-02-19T06:51:06.538Z,9.37
2018-02-19T06:53:34.174Z,8.20
2018-02-19T06:56:01.829Z,15.80
2018-02-19T06:58:30.227Z,8.13
2018-02-19T07:00:57.849Z,6.17
2018-02-19T07:03:25.474Z,8.10
2018-02-19T07:05:53.136Z,11.97
2018-02-19T07:08:20.783Z,9.90
2018-02-19T07:10:48.410Z,11.13
2018-02-19T07:13:16.207Z,7.50
2018-02-19T07:15:43.879Z,8.80
2018-02-19T07:18:11.534Z,10.80
2018-02-19T07:20:39.202Z,10.87
2018-02-19T07:23:06.861Z,9.37
2018-02-19T07:25:34.500Z,10.30
2018-02-19T07:28:02.903Z,7.60
2018-02-19T07:30:30.541Z,11.87
2018-02-19T07:32:58.169Z,8.80
2018-02-19T07:35:26.555Z,6.43
2018-02-19T07:37:55.705Z,12.33
2018-02-19T07:40:23.377Z,10.73
2018-02-19T07:42:51.050Z,9.70
2018-02-19T07:45:18.662Z,8.23
2018-02-19T07:47:47.067Z,12.33
2018-02-19T07:50:14.744Z,10.13
2018-02-19T07:52:45.902Z,16.17
2018-02-19T07:55:14.444Z,10.97
2018-02-19T07:57:42.085Z,9.53
2018-02-19T08:00:14.054Z,9.13
2018-02-19T08:02:42.493Z,8.37
2018-02-19T08:05:10.141Z,11.30
2018-02-19T08:07:37.770Z,9.80
2018-02-19T08:10:05.369Z,8.27
2018-02-19T08:12:33.847Z,9.80
2018-02-19T08:15:01.426Z,8.60
2018-02-19T08:17:29.823Z,13.67
2018-02-19T08:19:58.233Z,14.20
2018-02-19T08:22:25.858Z,9.40
2018-02-19T08:24:53.502Z,9.47
2018-02-19T08:27:21.176Z,12.17
2018-02-19T08:29:48.798Z,12.20
2018-02-19T08:32:17.920Z,8.87
2018-02-19T08:34:46.628Z,9.03
2018-02-19T08:37:14.268Z,10.00
2018-02-19T08:39:41.882Z,9.43
2018-02-19T08:42:09.510Z,9.20
2018-02-19T08:44:37.126Z,10.37
2018-02-19T08:47:04.734Z,8.87
2018-02-19T08:49:32.370Z,10.80
2018-02-19T08:52:00.003Z,14.47
2018-02-19T08:54:27.606Z,11.37
2018-02-19T08:56:55.992Z,11.00
2018-02-19T08:59:24.322Z,12.33
2018-02-19T09:01:51.973Z,10.97
2018-02-19T09:04:19.594Z,10.67
2018-02-19T09:06:47.279Z,13.33
2018-02-19T09:09:14.870Z,15.93
2018-02-19T09:11:43.279Z,12.27
2018-02-19T09:14:10.902Z,12.17
2018-02-19T09:16:38.547Z,14.00
2018-02-19T09:19:06.182Z,9.93
2018-02-19T09:21:34.613Z,12.17
2018-02-19T09:24:02.234Z,9.70
2018-02-19T09:26:29.868Z,11.73
2018-02-19T09:28:57.541Z,11.90
2018-02-19T09:31:25.290Z,10.47
2018-02-19T09:33:52.966Z,11.33
2018-02-19T09:36:20.598Z,10.63
2018-02-19T09:38:48.221Z,11.60
2018-02-19T09:41:15.910Z,9.97
2018-02-19T09:43:43.541Z,10.37
2018-02-19T09:46:11.924Z,13.53
2018-02-19T09:48:40.351Z,15.50
2018-02-19T09:51:07.961Z,8.73
2018-02-19T09:53:35.596Z,9.70
2018-02-19T09:56:03.249Z,12.03
2018-02-19T09:58:31.775Z,11.30
2018-02-19T10:00:59.417Z,11.60
2018-02-19T10:03:27.816Z,10.40
2018-02-19T10:05:55.463Z,8.80
2018-02-19T10:08:23.087Z,10.73
2018-02-19T10:10:50.714Z,8.70
2018-02-19T10:13:18.363Z,11.70
2018-02-19T10:15:46.012Z,10.40
2018-02-19T10:18:13.707Z,13.00
2018-02-19T10:20:41.338Z,11.67
2018-02-19T10:23:09.027Z,12.47
2018-02-19T10:25:36.673Z,13.63
2018-02-19T10:28:05.090Z,14.67
2018-02-19T10:30:32.781Z,15.63
2018-02-19T10:33:00.422Z,10.50
2018-02-19T10:35:28.765Z,11.60
2018-02-19T10:37:56.402Z,10.13
2018-02-19T10:40:24.043Z,15.37
2018-02-19T10:42:52.496Z,21.93
2018-02-19T10:45:20.180Z,8.47
2018-02-19T10:47:47.794Z,18.87
2018-02-19T10:50:16.279Z,18.77
2018-02-19T10:52:43.972Z,14.37
2018-02-19T10:55:11.571Z,10.77
2018-02-19T10:57:39.239Z,12.63
2018-02-19T11:00:06.886Z,12.13
2018-02-19T11:02:34.510Z,12.33
2018-02-19T11:05:02.175Z,12.40
2018-02-19T11:07:29.835Z,10.70
2018-02-19T11:09:57.447Z,9.97
2018-02-19T11:12:25.070Z,11.27
2018-02-19T11:14:52.709Z,13.20
2018-02-19T11:17:21.120Z,13.60
2018-02-19T11:19:48.746Z,14.43
2018-02-19T11:22:16.413Z,21.30
2018-02-19T11:24:44.070Z,15.63
2018-02-19T11:27:11.708Z,11.33
2018-02-19T11:29:40.138Z,14.00
2018-02-19T11:32:07.722Z,13.37
2018-02-19T11:34:35.361Z,12.40
2018-02-19T11:37:02.980Z,14.80
2018-02-19T11:39:30.749Z,15.53
2018-02-19T11:41:58.375Z,17.73
2018-02-19T11:44:26.799Z,8.73
2018-02-19T11:46:54.425Z,12.20
2018-02-19T11:49:22.818Z,14.77
2018-02-19T11:51:51.192Z,9.70
2018-02-19T11:54:18.823Z,10.40
2018-02-19T11:56:46.423Z,12.37
2018-02-19T11:59:14.093Z,11.80
2018-02-19T12:01:41.710Z,10.07
2018-02-19T12:04:10.239Z,11.17
2018-02-19T12:06:37.850Z,13.33
2018-02-19T12:09:05.525Z,13.77
2018-02-19T12:11:33.127Z,11.77
2018-02-19T12:14:00.779Z,15.40
2018-02-19T12:16:29.207Z,14.03
2018-02-19T12:18:56.842Z,13.73
2018-02-19T12:21:24.471Z,12.07
2018-02-19T12:23:52.078Z,11.97
2018-02-19T12:26:19.694Z,16.00
2018-02-19T12:28:47.307Z,10.17
2018-02-19T12:31:15.162Z,15.50
2018-02-19T12:33:42.835Z,14.60
2018-02-19T12:36:11.062Z,12.70
2018-02-19T12:38:38.703Z,13.47
2018-02-19T12:41:06.322Z,13.07
2018-02-19T12:43:34.696Z,11.80
2018-02-19T12:46:02.320Z,12.07
2018-02-19T12:48:29.927Z,10.73
2018-02-19T12:50:57.709Z,16.40
2018-02-19T12:53:25.339Z,11.13
2018-02-19T12:55:53.026Z,11.90
2018-02-19T12:58:20.666Z,12.40
2018-02-19T13:00:49.066Z,14.13
2018-02-19T13:03:18.334Z,13.03
2018-02-19T13:05:45.982Z,13.47
2018-02-19T13:08:13.609Z,12.43
2018-02-19T13:10:41.969Z,12.53
2018-02-19T13:13:09.623Z,12.77
2018-02-19T13:15:41.392Z,16.20
2018-02-19T13:20:42.895Z,11.73
2018-02-19T13:23:10.530Z,13.33
2018-02-19T13:25:38.934Z,13.43
2018-02-19T13:28:06.551Z,13.17
2018-02-19T13:30:34.196Z,11.93
2018-02-19T13:33:01.875Z,13.53
2018-02-19T13:35:30.334Z,15.13
2018-02-19T13:37:58.734Z,11.30
2018-02-19T13:40:26.446Z,15.13
2018-02-19T13:42:54.888Z,16.50
2018-02-19T13:45:22.546Z,12.23
2018-02-19T13:47:50.953Z,11.50
2018-02-19T13:50:19.407Z,16.33
2018-02-19T13:52:47.042Z,11.87
2018-02-19T13:55:14.943Z,17.33
2018-02-19T13:57:42.547Z,15.40
2018-02-19T14:00:10.238Z,13.87
2018-02-19T14:02:37.887Z,14.57
2018-02-19T14:05:05.534Z,14.97
2018-02-19T14:07:33.163Z,14.17
2018-02-19T14:10:01.642Z,8.37
2018-02-19T14:12:30.089Z,11.17
2018-02-19T14:14:57.869Z,11.67
2018-02-19T14:17:25.776Z,13.03
2018-02-19T14:19:53.488Z,14.87
2018-02-19T14:22:21.889Z,15.13
2018-02-19T14:24:49.678Z,13.83
2018-02-19T14:27:17.468Z,14.13
2018-02-19T14:29:45.239Z,17.13
2018-02-19T14:32:13.020Z,17.20
2018-02-19T14:34:40.778Z,11.73
2018-02-19T14:37:09.034Z,12.63
2018-02-19T14:39:36.681Z,11.93
2018-02-19T14:42:04.366Z,13.70
2018-02-19T14:44:35.582Z,12.83
2018-02-19T14:47:03.227Z,13.07
2018-02-19T14:49:31.599Z,10.97
2018-02-19T14:51:59.261Z,12.00
2018-02-19T14:54:27.224Z,15.10
2018-02-19T14:56:57.994Z,9.83
2018-02-19T14:59:27.546Z,14.73
2018-02-19T15:01:55.190Z,12.97
2018-02-19T15:04:22.814Z,14.80
2018-02-19T15:06:50.458Z,17.57
2018-02-19T15:09:18.956Z,15.87
2018-02-19T15:11:46.554Z,15.20
2018-02-19T15:14:14.153Z,15.37
2018-02-19T15:16:41.814Z,16.13
2018-02-19T15:19:09.452Z,16.77
2018-02-19T15:21:37.862Z,14.30
2018-02-19T15:24:05.487Z,14.67
2018-02-19T15:26:33.126Z,13.03
2018-02-19T15:29:00.815Z,21.93
2018-02-19T15:31:28.471Z,18.23
2018-02-19T15:33:56.103Z,12.47
2018-02-19T15:36:24.506Z,16.87
2018-02-19T15:38:52.927Z,14.87
2018-02-19T15:41:20.602Z,15.57
2018-02-19T15:43:48.644Z,19.77
2018-02-19T15:46:17.065Z,16.03
2018-02-19T15:48:45.682Z,13.47
2018-02-19T15:51:13.454Z,17.80
2018-02-19T15:53:41.231Z,15.33
2018-02-19T15:56:10.618Z,15.20
2018-02-19T15:58:38.279Z,14.03
2018-02-19T16:01:06.706Z,15.63
2018-02-19T16:03:35.190Z,16.17
2018-02-19T16:06:02.858Z,15.60
2018-02-19T16:08:35.102Z,12.50
2018-02-19T16:11:14.980Z,13.83
2018-02-19T16:13:42.669Z,15.63
2018-02-19T16:16:11.088Z,12.53
2018-02-19T16:18:38.764Z,16.90
2018-02-19T16:21:06.398Z,12.73
2018-02-19T16:23:34.816Z,17.67
2018-02-19T16:26:02.476Z,13.57
2018-02-19T16:28:30.187Z,17.03
2018-02-19T16:30:57.849Z,16.20
2018-02-19T16:33:25.631Z,17.30
2018-02-19T16:35:53.455Z,12.57
2018-02-19T16:38:21.154Z,18.20
2018-02-19T16:40:49.542Z,13.47
2018-02-19T16:43:17.969Z,11.90
2018-02-19T16:45:45.627Z,12.60
2018-02-19T16:48:13.259Z,14.10
2018-02-19T16:50:41.826Z,15.17
2018-02-19T16:53:09.522Z,14.43
2018-02-19T16:55:37.260Z,14.83
2018-02-19T16:58:04.910Z,15.33
2018-02-19T17:00:32.546Z,16.87
2018-02-19T17:03:00.693Z,15.73
2018-02-19T17:05:28.377Z,14.63
2018-02-19T17:07:56.117Z,18.43
2018-02-19T17:10:23.738Z,18.50
2018-02-19T17:12:51.422Z,14.73
2018-02-19T17:15:19.213Z,17.43
2018-02-19T17:17:47.664Z,14.43
2018-02-19T17:20:15.306Z,17.37
2018-02-19T17:22:42.925Z,12.63
2018-02-19T17:25:10.570Z,17.33
2018-02-19T17:27:39.742Z,14.60
2018-02-19T17:30:07.425Z,14.90
2018-02-19T17:32:35.833Z,18.87
2018-02-19T17:35:06.040Z,14.60
2018-02-19T17:37:33.659Z,17.80
2018-02-19T17:40:01.375Z,18.07
2018-02-19T17:42:29.032Z,15.20
2018-02-19T17:44:56.678Z,15.47
2018-02-19T17:47:24.350Z,18.20
2018-02-19T17:49:52.036Z,11.77
2018-02-19T17:52:19.670Z,18.47
2018-02-19T17:54:48.150Z,18.50
2018-02-19T17:57:15.994Z,16.40
2018-02-19T17:59:43.633Z,18.23
2018-02-19T18:02:11.362Z,16.77
2018-02-19T18:04:39.746Z,16.70
2018-02-19T18:07:07.349Z,15.13
2018-02-19T18:09:35.723Z,21.40
2018-02-19T18:12:03.359Z,22.77
2018-02-19T18:14:30.965Z,18.73
2018-02-19T18:16:58.667Z,21.03
2018-02-19T18:19:27.122Z,17.80
2018-02-19T18:21:54.754Z,15.80
2018-02-19T18:24:22.396Z,16.10
2018-02-19T18:26:50.822Z,19.00
2018-02-19T18:29:18.532Z,17.67
2018-02-19T18:31:47.121Z,19.67
2018-02-19T18:34:14.836Z,22.57
2018-02-19T18:36:43.274Z,13.93
2018-02-19T18:39:10.886Z,17.60
2018-02-19T18:41:38.499Z,17.97
2018-02-19T18:44:06.083Z,18.90
2018-02-19T18:46:34.286Z,21.00
2018-02-19T18:49:01.989Z,17.77
2018-02-19T18:51:29.739Z,17.37
2018-02-19T18:53:57.433Z,18.40
2018-02-19T18:56:25.086Z,17.23
2018-02-19T18:58:52.741Z,18.47
2018-02-19T19:01:20.419Z,22.97
2018-02-19T19:03:48.073Z,23.03
2018-02-19T19:06:16.453Z,16.13
2018-02-19T19:08:56.827Z,22.63
2018-02-19T19:11:25.247Z,23.27
2018-02-19T19:13:52.914Z,17.37
2018-02-19T19:16:20.564Z,16.57
2018-02-19T19:18:48.970Z,17.93
2018-02-19T19:21:17.396Z,14.97
2018-02-19T19:23:45.040Z,23.87
2018-02-19T19:26:12.650Z,19.77
2018-02-19T19:28:41.261Z,18.00
2018-02-19T19:31:09.149Z,19.17
2018-02-19T19:33:37.542Z,24.87
2018-02-19T19:36:05.163Z,18.37
2018-02-19T19:38:32.846Z,13.50
2018-02-19T19:41:00.574Z,22.23
2018-02-19T19:43:28.252Z,20.13
2018-02-19T19:45:55.857Z,15.20
2018-02-19T19:48:23.531Z,16.73
2018-02-19T19:50:51.253Z,15.67
2018-02-19T19:53:19.406Z,13.37
2018-02-19T19:55:47.143Z,16.23
2018-02-19T19:58:15.538Z,14.67
2018-02-19T20:00:44.001Z,33.13
2018-02-19T20:03:11.634Z,16.90
2018-02-19T20:05:39.302Z,22.63
2018-02-19T20:08:06.982Z,16.67
2018-02-19T20:10:34.647Z,15.63
2018-02-19T20:13:02.261Z,15.83
2018-02-19T20:15:30.030Z,20.20
2018-02-19T20:17:58.457Z,14.33
2018-02-19T20:20:26.120Z,19.90
2018-02-19T20:22:53.767Z,17.37
2018-02-19T20:25:21.420Z,18.70
2018-02-19T20:27:49.035Z,17.73
2018-02-19T20:30:16.701Z,17.10
2018-02-19T20:32:44.362Z,13.53
2018-02-19T20:35:12.021Z,14.70
2018-02-19T20:37:39.653Z,17.03
2018-02-19T20:40:08.078Z,19.70
2018-02-19T20:42:35.762Z,19.50
2018-02-19T20:45:03.425Z,22.13
2018-02-19T20:47:31.101Z,18.37
2018-02-19T20:49:58.766Z,19.27
2018-02-19T20:52:26.418Z,14.60
2018-02-19T20:54:54.797Z,19.20
2018-02-19T20:57:22.435Z,10.47
2018-02-19T20:59:50.062Z,14.93
2018-02-19T21:02:18.473Z,20.53
2018-02-19T21:04:46.135Z,18.07
2018-02-19T21:07:14.731Z,23.93
2018-02-19T21:09:43.120Z,18.43
2018-02-19T21:12:11.555Z,19.10
2018-02-19T21:14:39.326Z,17.90
2018-02-19T21:17:07.104Z,19.73
2018-02-19T21:19:36.053Z,16.23
2018-02-19T21:22:04.461Z,16.27
2018-02-19T21:24:32.888Z,15.63
2018-02-19T21:27:00.518Z,17.63
2018-02-19T21:29:28.956Z,17.27
2018-02-19T21:31:56.610Z,20.93
2018-02-19T21:34:24.220Z,23.07
2018-02-19T21:36:51.893Z,18.63
2018-02-19T21:39:19.543Z,21.73
2018-02-19T21:41:47.341Z,22.70
2018-02-19T21:44:15.104Z,21.73
2018-02-19T21:46:42.888Z,15.93
2018-02-19T21:49:10.596Z,23.23
2018-02-19T21:51:38.264Z,12.07
2018-02-19T21:54:05.857Z,15.87
2018-02-19T21:56:34.411Z,19.60
2018-02-19T21:59:02.047Z,20.30
2018-02-19T22:01:29.727Z,15.47
2018-02-19T22:03:57.333Z,21.03
2018-02-19T22:06:24.998Z,21.23
2018-02-19T22:08:52.618Z,21.57
2018-02-19T22:11:20.338Z,17.50
2018-02-19T22:13:47.954Z,21.47
2018-02-19T22:16:15.582Z,17.20
2018-02-19T22:18:43.182Z,23.63
2018-02-19T22:21:10.814Z,24.63
2018-02-19T22:23:38.458Z,19.30
2018-02-19T22:26:06.886Z,19.23
2018-02-19T22:28:34.492Z,18.57
2018-02-19T22:31:02.186Z,17.37
2018-02-19T22:33:29.859Z,21.43
2018-02-19T22:35:57.530Z,18.00
2018-02-19T22:38:25.160Z,22.17
2018-02-19T22:40:52.806Z,14.93
2018-02-19T22:43:21.213Z,13.23
2018-02-19T22:45:48.890Z,18.63
2018-02-19T22:48:16.538Z,21.07
2018-02-19T22:50:44.961Z,18.53
2018-02-19T22:53:12.590Z,18.57
2018-02-19T22:55:40.243Z,17.53
2018-02-19T22:58:07.936Z,17.70
2018-02-19T23:00:35.586Z,21.60
2018-02-19T23:03:03.347Z,23.43
2018-02-19T23:05:30.989Z,16.70
2018-02-19T23:07:59.385Z,16.03
2018-02-19T23:10:27.798Z,13.73
2018-02-19T23:12:55.462Z,18.07
2018-02-19T23:15:23.104Z,22.67
2018-02-19T23:17:50.713Z,17.77
2018-02-19T23:20:18.330Z,25.73
2018-02-19T23:22:45.967Z,18.03
2018-02-19T23:25:13.614Z,24.27
2018-02-19T23:27:42.018Z,18.47
2018-02-19T23:30:09.642Z,17.80
2018-02-19T23:32:37.269Z,26.03
2018-02-19T23:35:04.887Z,18.17
2018-02-19T23:37:32.518Z,25.23
2018-02-19T23:40:00.157Z,26.23
2018-02-19T23:42:28.569Z,22.90
2018-02-19T23:44:56.191Z,19.03
2018-02-19T23:47:23.810Z,24.43
2018-02-19T23:49:51.434Z,28.43
2018-02-19T23:52:19.067Z,22.50
2018-02-19T23:54:46.654Z,23.30
2018-02-19T23:57:14.291Z,22.63
2018-02-19T23:59:42.717Z,24.80
